createdAt,value
2018-02-26T00:08:18.284Z,10.73
2018-02-26T00:10:45.792Z,9.10
2018-02-26T00:13:13.314Z,10.27
2018-02-26T00:15:40.866Z,10.23
2018-02-26T00:18:09.409Z,10.30
2018-02-26T00:20:38.697Z,10.75
2018-02-26T00:23:06.916Z,11.73
2018-02-26T00:25:34.450Z,10.95
2018-02-26T00:28:03.061Z,10.27
2018-02-26T00:30:32.823Z,10.70
2018-02-26T00:33:05.886Z,12.82
2018-02-26T00:35:33.741Z,11.82
2018-02-26T00:38:01.982Z,10.10
2018-02-26T00:40:29.501Z,11.55
2018-02-26T00:42:59.042Z,11.12
2018-02-26T00:45:27.673Z,11.52
2018-02-26T00:47:55.244Z,11.85
2018-02-26T00:50:23.556Z,11.80
2018-02-26T00:52:51.083Z,12.35
2018-02-26T00:55:18.599Z,12.77
2018-02-26T00:57:46.103Z,12.77
2018-02-26T01:00:14.384Z,12.00
2018-02-26T01:02:42.692Z,11.15
2018-02-26T01:05:10.358Z,13.60
2018-02-26T01:07:37.885Z,12.07
2018-02-26T01:10:05.441Z,12.55
2018-02-26T01:12:33.757Z,13.18
2018-02-26T01:15:01.280Z,11.60
2018-02-26T01:17:28.986Z,12.70
2018-02-26T01:19:56.619Z,11.88
2018-02-26T01:22:24.141Z,13.70
2018-02-26T01:24:51.654Z,12.30
2018-02-26T01:27:21.365Z,13.20
2018-02-26T01:29:48.924Z,10.50
2018-02-26T01:32:18.047Z,9.40
2018-02-26T01:34:46.125Z,10.40
2018-02-26T01:37:13.636Z,11.48
2018-02-26T01:39:41.912Z,10.75
2018-02-26T01:42:10.184Z,10.82
2018-02-26T01:44:38.494Z,11.95
2018-02-26T01:47:05.997Z,11.12
2018-02-26T01:49:34.074Z,11.00
2018-02-26T01:52:01.621Z,11.05
2018-02-26T01:54:29.200Z,10.13
2018-02-26T01:56:57.490Z,11.45
2018-02-26T01:59:25.017Z,11.45
2018-02-26T02:01:52.549Z,12.05
2018-02-26T02:04:20.155Z,12.18
2018-02-26T02:06:48.445Z,11.60
2018-02-26T02:09:16.755Z,11.30
2018-02-26T02:11:44.289Z,11.50
2018-02-26T02:14:12.522Z,10.32
2018-02-26T02:16:40.043Z,8.57
2018-02-26T02:19:07.584Z,10.55
2018-02-26T02:21:35.140Z,9.20
2018-02-26T02:24:02.666Z,9.93
2018-02-26T02:26:30.181Z,8.77
2018-02-26T02:28:58.448Z,11.38
2018-02-26T02:31:25.991Z,10.40
2018-02-26T02:33:53.526Z,9.15
2018-02-26T02:36:21.037Z,9.20
2018-02-26T02:38:48.600Z,8.90
2018-02-26T02:41:16.134Z,9.48
2018-02-26T02:43:43.662Z,9.90
2018-02-26T02:46:11.198Z,7.62
2018-02-26T02:48:38.805Z,9.77
2018-02-26T02:51:06.366Z,9.23
2018-02-26T02:53:34.648Z,8.95
2018-02-26T02:56:02.959Z,8.18
2018-02-26T02:58:31.521Z,8.10
2018-02-26T03:00:59.052Z,8.45
2018-02-26T03:03:26.640Z,8.30
2018-02-26T03:05:54.175Z,7.43
2018-02-26T03:08:21.754Z,8.57
2018-02-26T03:10:49.272Z,9.07
2018-02-26T03:13:16.832Z,10.57
2018-02-26T03:15:44.388Z,8.30
2018-02-26T03:18:11.925Z,8.15
2018-02-26T03:20:39.433Z,8.85
2018-02-26T03:23:06.954Z,9.45
2018-02-26T03:25:34.460Z,9.90
2018-02-26T03:28:02.772Z,8.40
2018-02-26T03:30:30.305Z,9.45
2018-02-26T03:32:57.846Z,10.25
2018-02-26T03:35:26.153Z,8.82
2018-02-26T03:37:53.673Z,11.88
2018-02-26T03:40:21.201Z,10.07
2018-02-26T03:42:48.728Z,10.05
2018-02-26T03:45:16.267Z,12.05
2018-02-26T03:47:43.779Z,13.20
2018-02-26T03:50:11.288Z,13.52
2018-02-26T03:52:39.584Z,14.38
2018-02-26T03:55:07.103Z,11.73
2018-02-26T03:57:34.648Z,13.55
2018-02-26T04:00:02.272Z,12.82
2018-02-26T04:02:29.794Z,13.60
2018-02-26T04:04:57.398Z,12.65
2018-02-26T04:07:24.912Z,14.07
2018-02-26T04:09:53.249Z,13.90
2018-02-26T04:12:20.827Z,12.52
2018-02-26T04:14:49.108Z,12.43
2018-02-26T04:17:17.420Z,14.90
2018-02-26T04:19:45.699Z,12.88
2018-02-26T04:22:13.981Z,12.52
2018-02-26T04:24:42.290Z,12.57
2018-02-26T04:27:09.818Z,11.20
2018-02-26T04:29:37.350Z,11.60
2018-02-26T04:32:04.877Z,12.88
2018-02-26T04:34:32.423Z,12.02
2018-02-26T04:36:59.990Z,11.65
2018-02-26T04:39:27.515Z,12.27
2018-02-26T04:41:55.033Z,11.80
2018-02-26T04:44:22.575Z,11.05
2018-02-26T04:46:50.118Z,12.18
2018-02-26T04:49:17.651Z,12.48
2018-02-26T04:51:45.956Z,12.50
2018-02-26T04:54:13.496Z,15.05
2018-02-26T04:56:41.015Z,12.37
2018-02-26T04:59:08.528Z,12.70
2018-02-26T05:01:36.030Z,14.80
2018-02-26T05:04:03.543Z,11.63
2018-02-26T05:06:31.097Z,15.52
2018-02-26T05:08:58.658Z,14.18
2018-02-26T05:11:26.191Z,13.07
2018-02-26T05:13:54.482Z,11.60
2018-02-26T05:16:22.752Z,12.23
2018-02-26T05:18:51.087Z,10.82
2018-02-26T05:21:18.608Z,12.00
2018-02-26T05:23:46.125Z,10.25
2018-02-26T05:26:13.643Z,11.43
2018-02-26T05:28:41.169Z,10.07
2018-02-26T05:31:08.706Z,11.18
2018-02-26T05:33:36.227Z,9.85
2018-02-26T05:36:03.752Z,9.63
2018-02-26T05:38:31.362Z,10.15
2018-02-26T05:40:58.885Z,9.88
2018-02-26T05:43:26.410Z,8.70
2018-02-26T05:45:53.939Z,9.23
2018-02-26T05:48:21.460Z,9.57
2018-02-26T05:50:48.981Z,10.70
2018-02-26T05:53:16.500Z,8.77
2018-02-26T05:55:44.055Z,8.68
2018-02-26T05:58:11.572Z,9.15
2018-02-26T06:00:44.766Z,8.70
2018-02-26T06:03:12.379Z,7.00
2018-02-26T06:05:39.910Z,9.10
2018-02-26T06:08:08.200Z,11.23
2018-02-26T06:10:35.741Z,8.95
2018-02-26T06:13:04.014Z,9.35
2018-02-26T06:15:31.572Z,10.27
2018-02-26T06:17:59.082Z,8.18
2018-02-26T06:20:26.614Z,8.75
2018-02-26T06:22:54.157Z,8.15
2018-02-26T06:25:22.433Z,7.97
2018-02-26T06:27:50.746Z,10.10
2018-02-26T06:30:18.360Z,8.43
2018-02-26T06:32:46.651Z,9.52
2018-02-26T06:35:14.940Z,7.60
2018-02-26T06:37:42.491Z,8.65
2018-02-26T06:40:10.020Z,9.25
2018-02-26T06:42:37.551Z,10.70
2018-02-26T06:45:05.094Z,9.40
2018-02-26T06:47:32.661Z,9.40
2018-02-26T06:50:00.214Z,8.98
2018-02-26T06:52:27.737Z,8.52
2018-02-26T06:54:56.012Z,8.75
2018-02-26T06:57:25.553Z,10.95
2018-02-26T06:59:53.066Z,8.50
2018-02-26T07:02:21.430Z,8.90
2018-02-26T07:04:49.155Z,9.07
2018-02-26T07:07:16.674Z,9.20
2018-02-26T07:09:44.242Z,9.07
2018-02-26T07:12:12.549Z,8.57
2018-02-26T07:14:40.105Z,9.38
2018-02-26T07:17:07.626Z,8.73
2018-02-26T07:19:35.215Z,8.27
2018-02-26T07:22:02.724Z,9.65
2018-02-26T07:24:30.255Z,9.15
2018-02-26T07:26:57.776Z,8.65
2018-02-26T07:29:25.318Z,9.27
2018-02-26T07:31:52.865Z,9.70
2018-02-26T07:34:20.393Z,7.45
2018-02-26T07:36:48.655Z,7.60
2018-02-26T07:39:16.174Z,10.90
2018-02-26T07:41:43.703Z,8.45
2018-02-26T07:44:11.240Z,10.48
2018-02-26T07:46:38.772Z,9.27
2018-02-26T07:49:07.052Z,8.20
2018-02-26T07:51:35.365Z,10.02
2018-02-26T07:54:02.953Z,8.35
2018-02-26T07:56:30.465Z,7.05
2018-02-26T07:58:57.997Z,8.50
2018-02-26T08:01:25.551Z,7.60
2018-02-26T08:03:53.066Z,6.37
2018-02-26T08:06:20.585Z,7.43
2018-02-26T08:08:48.093Z,8.80
2018-02-26T08:11:15.659Z,8.65
2018-02-26T08:13:43.191Z,5.62
2018-02-26T08:16:10.706Z,6.68
2018-02-26T08:18:38.217Z,6.03
2018-02-26T08:21:05.919Z,5.93
2018-02-26T08:23:33.414Z,6.55
2018-02-26T08:26:00.921Z,6.80
2018-02-26T08:28:28.433Z,6.93
2018-02-26T08:30:58.899Z,5.75
2018-02-26T08:33:28.645Z,6.65
2018-02-26T08:35:57.810Z,6.93
2018-02-26T08:38:25.348Z,7.97
2018-02-26T08:40:52.868Z,7.30
2018-02-26T08:43:20.474Z,10.00
2018-02-26T08:45:48.023Z,6.47
2018-02-26T08:48:15.591Z,6.68
2018-02-26T08:50:43.094Z,6.45
2018-02-26T08:53:10.630Z,5.60
2018-02-26T08:55:38.144Z,5.55
2018-02-26T08:58:05.740Z,5.12
2018-02-26T09:00:33.362Z,4.00
2018-02-26T09:03:01.714Z,5.25
2018-02-26T09:05:29.221Z,6.37
2018-02-26T09:07:56.780Z,5.20
2018-02-26T09:10:25.066Z,5.60
2018-02-26T09:12:52.598Z,5.22
2018-02-26T09:15:20.106Z,6.95
2018-02-26T09:17:48.553Z,5.95
2018-02-26T09:20:16.128Z,4.75
2018-02-26T09:22:43.661Z,6.10
2018-02-26T09:25:11.186Z,5.87
2018-02-26T09:27:38.712Z,5.40
2018-02-26T09:30:06.242Z,4.40
2018-02-26T09:32:33.761Z,6.28
2018-02-26T09:35:01.291Z,5.40
2018-02-26T09:37:28.819Z,5.85
2018-02-26T09:39:56.338Z,5.00
2018-02-26T09:42:23.837Z,5.40
2018-02-26T09:44:52.156Z,7.97
2018-02-26T09:47:19.671Z,6.28
2018-02-26T09:49:52.823Z,6.40
2018-02-26T09:52:20.558Z,6.53
2018-02-26T09:54:48.078Z,5.35
2018-02-26T09:57:15.595Z,6.03
2018-02-26T09:59:43.137Z,4.47
2018-02-26T10:02:10.634Z,4.78
2018-02-26T10:04:38.138Z,4.90
2018-02-26T10:07:05.653Z,4.50
2018-02-26T10:09:33.186Z,5.47
2018-02-26T10:12:00.750Z,5.35
2018-02-26T10:14:28.272Z,5.05
2018-02-26T10:16:55.776Z,5.72
2018-02-26T10:19:23.314Z,5.05
2018-02-26T10:21:50.819Z,6.55
2018-02-26T10:24:18.333Z,4.93
2018-02-26T10:26:45.861Z,4.00
2018-02-26T10:29:14.178Z,5.93
2018-02-26T10:31:41.735Z,6.12
2018-02-26T10:34:09.259Z,5.57
2018-02-26T10:36:37.533Z,5.35
2018-02-26T10:39:05.811Z,5.68
2018-02-26T10:41:34.092Z,5.00
2018-02-26T10:44:01.632Z,4.95
2018-02-26T10:46:29.153Z,5.25
2018-02-26T10:48:56.660Z,4.82
2018-02-26T10:51:25.082Z,5.07
2018-02-26T10:53:52.593Z,6.35
2018-02-26T10:56:20.880Z,5.28
2018-02-26T10:58:49.157Z,5.65
2018-02-26T11:01:17.439Z,6.43
2018-02-26T11:03:45.742Z,5.60
2018-02-26T11:06:13.265Z,4.07
2018-02-26T11:08:40.796Z,5.03
2018-02-26T11:11:08.326Z,5.12
2018-02-26T11:13:35.851Z,6.47
2018-02-26T11:16:04.122Z,6.80
2018-02-26T11:18:31.624Z,6.30
2018-02-26T11:20:59.152Z,5.12
2018-02-26T11:23:27.434Z,5.70
2018-02-26T11:25:54.945Z,6.22
2018-02-26T11:28:22.468Z,5.20
2018-02-26T11:30:49.999Z,6.37
2018-02-26T11:33:18.282Z,7.03
2018-02-26T11:35:46.609Z,5.22
2018-02-26T11:38:14.112Z,5.30
2018-02-26T11:40:41.640Z,4.93
2018-02-26T11:43:09.159Z,5.45
2018-02-26T11:45:36.730Z,6.20
2018-02-26T11:48:04.226Z,6.15
2018-02-26T11:50:31.780Z,5.40
2018-02-26T11:52:59.287Z,6.75
2018-02-26T11:55:26.800Z,5.70
2018-02-26T11:57:54.311Z,6.30
2018-02-26T12:00:21.849Z,5.35
2018-02-26T12:02:50.132Z,5.32
2018-02-26T12:05:17.657Z,4.40
2018-02-26T12:07:45.155Z,5.97
2018-02-26T12:10:12.673Z,5.12
2018-02-26T12:12:40.176Z,7.55
2018-02-26T12:15:07.694Z,4.90
2018-02-26T12:17:35.219Z,5.50
2018-02-26T12:20:02.735Z,4.97
2018-02-26T12:22:30.266Z,4.20
2018-02-26T12:24:57.778Z,5.07
2018-02-26T12:27:25.313Z,5.93
2018-02-26T12:29:53.591Z,8.90
2018-02-26T12:32:21.120Z,4.62
2018-02-26T12:34:48.633Z,6.25
2018-02-26T12:37:16.163Z,4.82
2018-02-26T12:39:43.688Z,6.72
2018-02-26T12:42:11.946Z,6.65
2018-02-26T12:44:39.473Z,5.55
2018-02-26T12:47:07.750Z,5.90
2018-02-26T12:49:36.011Z,5.85
2018-02-26T12:52:04.336Z,4.82
2018-02-26T12:54:31.856Z,5.80
2018-02-26T12:56:59.382Z,6.60
2018-02-26T12:59:26.908Z,5.25
2018-02-26T13:01:54.428Z,5.87
2018-02-26T13:04:22.747Z,6.30
2018-02-26T13:06:50.261Z,7.12
2018-02-26T13:09:17.792Z,9.88
2018-02-26T13:11:45.418Z,6.37
2018-02-26T13:14:12.972Z,7.03
2018-02-26T13:16:40.494Z,6.55
2018-02-26T13:19:08.771Z,6.20
2018-02-26T13:21:37.047Z,5.90
2018-02-26T13:24:04.564Z,5.95
2018-02-26T13:26:32.085Z,6.55
2018-02-26T13:28:59.599Z,7.07
2018-02-26T13:31:27.117Z,6.62
2018-02-26T13:33:54.656Z,7.15
2018-02-26T13:36:22.176Z,6.45
2018-02-26T13:38:49.705Z,6.68
2018-02-26T13:41:17.214Z,8.05
2018-02-26T13:43:44.758Z,7.22
2018-02-26T13:46:12.287Z,7.50
2018-02-26T13:48:39.802Z,5.95
2018-02-26T13:51:07.307Z,6.93
2018-02-26T13:53:34.829Z,7.12
2018-02-26T13:56:03.137Z,5.75
2018-02-26T13:58:30.660Z,5.90
2018-02-26T14:00:58.183Z,6.40
2018-02-26T14:03:25.760Z,5.28
2018-02-26T14:05:53.263Z,6.90
2018-02-26T14:08:20.797Z,5.12
2018-02-26T14:10:49.072Z,6.00
2018-02-26T14:13:16.587Z,5.47
2018-02-26T14:15:44.088Z,5.37
2018-02-26T14:18:11.593Z,5.50
2018-02-26T14:20:39.108Z,5.43
2018-02-26T14:23:06.620Z,5.03
2018-02-26T14:25:34.127Z,4.97
2018-02-26T14:28:01.706Z,5.05
2018-02-26T14:30:30.047Z,4.87
2018-02-26T14:32:57.573Z,5.30
2018-02-26T14:35:25.079Z,4.30
2018-02-26T14:37:52.763Z,4.45
2018-02-26T14:40:21.052Z,5.65
2018-02-26T14:42:48.595Z,5.37
2018-02-26T14:45:16.881Z,4.40
2018-02-26T14:47:44.373Z,6.80
2018-02-26T14:50:11.889Z,6.55
2018-02-26T14:52:40.179Z,6.47
2018-02-26T14:55:10.070Z,5.40
2018-02-26T14:57:37.606Z,5.40
2018-02-26T15:00:05.108Z,7.25
2018-02-26T15:02:32.666Z,6.70
2018-02-26T15:05:00.937Z,5.87
2018-02-26T15:07:29.241Z,4.15
2018-02-26T15:09:56.742Z,3.87
2018-02-26T15:12:24.284Z,4.50
2018-02-26T15:14:51.793Z,5.60
2018-02-26T15:17:20.069Z,4.22
2018-02-26T15:19:48.396Z,5.20
2018-02-26T15:22:15.914Z,4.70
2018-02-26T15:24:43.487Z,4.20
2018-02-26T15:27:11.064Z,4.28
2018-02-26T15:29:38.748Z,4.37
2018-02-26T15:32:06.268Z,4.35
2018-02-26T15:34:33.829Z,4.40
2018-02-26T15:37:01.464Z,5.40
2018-02-26T15:39:29.072Z,5.12
2018-02-26T15:41:56.692Z,4.45
2018-02-26T15:44:25.012Z,5.03
2018-02-26T15:46:52.521Z,4.80
2018-02-26T15:49:20.047Z,3.30
2018-02-26T15:51:47.565Z,3.83
2018-02-26T15:54:15.118Z,4.80
2018-02-26T15:56:42.703Z,3.92
2018-02-26T15:59:10.218Z,3.10
2018-02-26T16:01:37.773Z,3.85
2018-02-26T16:04:05.299Z,3.70
2018-02-26T16:06:32.839Z,3.60
2018-02-26T16:09:00.399Z,3.70
2018-02-26T16:11:27.940Z,4.65
2018-02-26T16:13:55.484Z,4.70
2018-02-26T16:16:23.875Z,3.90
2018-02-26T16:18:51.407Z,3.80
2018-02-26T16:21:18.932Z,3.55
2018-02-26T16:23:46.540Z,4.07
2018-02-26T16:26:14.835Z,2.95
2018-02-26T16:28:42.403Z,3.53
2018-02-26T16:31:09.929Z,3.17
2018-02-26T16:33:37.454Z,4.43
2018-02-26T16:36:04.969Z,3.15
2018-02-26T16:38:32.508Z,3.85
2018-02-26T16:41:00.057Z,3.20
2018-02-26T16:43:27.634Z,4.05
2018-02-26T16:45:55.927Z,4.87
2018-02-26T16:48:24.220Z,3.42
2018-02-26T16:50:51.793Z,3.65
2018-02-26T16:53:19.299Z,4.62
2018-02-26T16:55:46.850Z,3.97
2018-02-26T16:58:14.511Z,4.12
2018-02-26T17:00:42.044Z,4.00
2018-02-26T17:03:09.586Z,3.20
2018-02-26T17:05:37.273Z,3.90
2018-02-26T17:08:04.793Z,3.50
2018-02-26T17:10:32.393Z,4.05
2018-02-26T17:13:00.786Z,4.72
2018-02-26T17:15:28.295Z,3.90
2018-02-26T17:17:55.838Z,4.25
2018-02-26T17:20:24.163Z,3.92
2018-02-26T17:22:51.863Z,4.62
2018-02-26T17:25:20.167Z,5.00
2018-02-26T17:27:48.455Z,4.00
2018-02-26T17:30:15.966Z,4.45
2018-02-26T17:32:43.494Z,4.05
2018-02-26T17:35:11.029Z,3.50
2018-02-26T17:37:38.563Z,4.47
2018-02-26T17:40:06.097Z,4.32
2018-02-26T17:42:33.679Z,3.80
2018-02-26T17:45:01.234Z,4.97
2018-02-26T17:47:28.755Z,4.75
2018-02-26T17:49:56.267Z,5.65
2018-02-26T17:52:23.891Z,5.32
2018-02-26T17:54:51.428Z,5.28
2018-02-26T17:57:19.039Z,6.70
2018-02-26T17:59:46.567Z,4.20
2018-02-26T18:02:14.132Z,4.85
2018-02-26T18:04:41.727Z,3.60
2018-02-26T18:07:10.003Z,3.00
2018-02-26T18:09:37.662Z,3.65
2018-02-26T18:12:05.966Z,5.47
2018-02-26T18:14:33.512Z,5.12
2018-02-26T18:17:01.837Z,3.72
2018-02-26T18:19:29.365Z,4.60
2018-02-26T18:21:57.015Z,4.15
2018-02-26T18:24:25.331Z,6.30
2018-02-26T18:26:52.912Z,9.05
2018-02-26T18:58:42.405Z,5.32
2018-02-26T19:01:09.920Z,5.65
2018-02-26T19:03:37.461Z,5.20
2018-02-26T19:06:05.801Z,4.82
2018-02-26T19:08:33.351Z,5.43
2018-02-26T19:11:00.899Z,6.22
2018-02-26T19:13:28.420Z,6.07
2018-02-26T19:15:55.993Z,4.53
2018-02-26T19:18:23.527Z,3.87
2018-02-26T19:20:51.843Z,6.70
2018-02-26T19:23:19.372Z,4.93
2018-02-26T19:25:47.784Z,5.40
2018-02-26T19:28:15.303Z,4.65
2018-02-26T19:30:43.597Z,4.32
2018-02-26T19:33:11.139Z,4.90
2018-02-26T19:35:39.451Z,5.90
2018-02-26T19:38:07.049Z,4.45
2018-02-26T19:40:34.584Z,6.70
2018-02-26T19:43:02.137Z,6.10
2018-02-26T19:45:29.671Z,5.55
2018-02-26T19:47:57.327Z,5.35
2018-02-26T19:50:24.879Z,6.35
2018-02-26T19:52:53.260Z,8.73
2018-02-26T19:55:20.819Z,5.55
2018-02-26T19:57:49.187Z,5.35
2018-02-26T20:00:16.726Z,5.15
2018-02-26T20:02:44.293Z,5.85
2018-02-26T20:05:11.901Z,5.57
2018-02-26T20:07:39.490Z,6.90
2018-02-26T20:10:07.128Z,8.50
2018-02-26T20:12:34.792Z,6.10
2018-02-26T20:15:02.350Z,6.68
2018-02-26T20:17:29.897Z,6.18
2018-02-26T20:19:57.442Z,7.05
2018-02-26T20:22:25.763Z,8.00
2018-02-26T20:24:54.022Z,7.87
2018-02-26T20:27:21.687Z,7.15
2018-02-26T20:29:49.477Z,7.90
2018-02-26T20:35:05.240Z,6.85
2018-02-26T20:37:33.095Z,6.95
2018-02-26T20:40:00.659Z,7.18
2018-02-26T20:42:28.948Z,6.18
2018-02-26T20:44:57.236Z,7.55
2018-02-26T20:47:24.911Z,6.65
2018-02-26T20:49:52.494Z,6.70
2018-02-26T20:52:20.006Z,7.10
2018-02-26T20:54:48.304Z,7.32
2018-02-26T20:57:15.839Z,8.95
2018-02-26T20:59:43.380Z,6.15
2018-02-26T21:02:11.707Z,6.12
2018-02-26T21:04:39.238Z,6.37
2018-02-26T21:07:06.760Z,6.93
2018-02-26T21:09:34.312Z,6.80
2018-02-26T21:12:01.845Z,7.00
2018-02-26T21:14:29.352Z,7.25
2018-02-26T21:16:56.894Z,5.90
2018-02-26T21:19:24.417Z,10.23
2018-02-26T21:21:51.966Z,9.88
2018-02-26T21:24:19.480Z,10.60
2018-02-26T21:26:47.000Z,8.98
2018-02-26T21:29:14.694Z,8.70
2018-02-26T21:31:42.230Z,9.00
2018-02-26T21:34:09.770Z,9.48
2018-02-26T21:36:37.298Z,7.78
2018-02-26T21:39:04.834Z,6.70
2018-02-26T21:41:32.425Z,9.77
2018-02-26T21:44:00.786Z,8.18
2018-02-26T21:46:28.362Z,8.82
2018-02-26T21:48:56.654Z,6.62
2018-02-26T21:51:24.946Z,8.93
2018-02-26T21:53:52.469Z,7.85
2018-02-26T21:56:20.015Z,7.05
2018-02-26T21:58:47.536Z,6.87
2018-02-26T22:01:15.062Z,9.82
2018-02-26T22:03:42.590Z,7.20
2018-02-26T22:06:10.116Z,8.38
2018-02-26T22:08:41.724Z,7.90
2018-02-26T22:11:09.265Z,6.12
2018-02-26T22:13:36.812Z,6.60
2018-02-26T22:16:04.350Z,7.00
2018-02-26T22:18:31.912Z,5.25
2018-02-26T22:20:59.419Z,8.55
2018-02-26T22:23:26.952Z,6.12
2018-02-26T22:25:54.476Z,5.57
2018-02-26T22:28:22.058Z,5.90
2018-02-26T22:30:49.585Z,7.40
2018-02-26T22:33:17.902Z,8.60
2018-02-26T22:35:45.415Z,5.70
2018-02-26T22:38:12.959Z,5.32
2018-02-26T22:40:40.468Z,7.60
2018-02-26T22:43:08.031Z,7.28
2018-02-26T22:45:37.850Z,6.10
2018-02-26T22:48:05.403Z,5.80
2018-02-26T22:50:33.006Z,5.20
2018-02-26T22:53:00.559Z,5.40
2018-02-26T22:55:28.781Z,6.78
2018-02-26T22:57:56.395Z,6.03
2018-02-26T23:00:24.022Z,6.80
2018-02-26T23:02:51.603Z,6.87
2018-02-26T23:05:19.243Z,6.03
2018-02-26T23:07:46.770Z,6.70
2018-02-26T23:10:15.074Z,6.87
2018-02-26T23:12:42.737Z,5.80
2018-02-26T23:15:10.316Z,5.85
2018-02-26T23:17:37.876Z,6.18
2018-02-26T23:20:05.388Z,6.55
2018-02-26T23:22:32.958Z,6.28
2018-02-26T23:25:01.223Z,5.95
2018-02-26T23:27:29.539Z,15.90
2018-02-26T23:29:57.060Z,5.05
2018-02-26T23:32:24.588Z,5.62
2018-02-26T23:34:53.034Z,5.72
2018-02-26T23:37:20.582Z,6.28
2018-02-26T23:39:48.227Z,6.47
2018-02-26T23:42:16.516Z,5.90
2018-02-26T23:44:44.087Z,5.55
2018-02-26T23:47:11.617Z,6.12
2018-02-26T23:49:39.926Z,7.28
2018-02-26T23:52:07.453Z,6.72
2018-02-26T23:54:44.775Z,5.95
2018-02-26T23:57:12.323Z,5.85
2018-02-26T23:59:39.848Z,7.93
